Terminal Aerodrome Forecast
Issued by NWS Twin Cities, MN

Home | Current Version | Previous Version | Graphics & Text | Print | Product List | Glossary On
Versions: 1 2 3 4 5 6 7 8 9 10 11 12 13 14 15 16 17 18 19 20 21 22 23 24 25 26 27 28 29
000
FTUS43 KMPX 251419 AAB
TAFMSP
TAF AMD
KMSP 251419Z 2514/2618 14011G17KT P6SM VCTS SCT040 OVC060CB
      TEMPO 2514/2516 22015G25KT 3SM -TSRA BKN030CB
     FM251700 13014G21KT P6SM -SHRA VCTS OVC050CB
     FM251900 12012KT P6SM VCSH BKN040 OVC100
     FM252200 13009KT P6SM SCT050 BKN250
     FM261000 17004KT 5SM BR SCT250
     FM261300 21008KT P6SM SCT250=

USA.gov is the U.S. government's official web portal to all federal, state and local government web resources and services.